Time;durP1;ratioP1;P1;durP2;ratioP2;P2;SDS_P1;SDS_P2;PMS_P1;PMS_P2;Temp;Humidity;BMP_temperature;BMP_pressure;BME280_temperature;BME280_humidity;BME280_pressure;Samples;Min_cycle;Max_cycle;Signal;HPM_P1;HPM_P2
2022/03/06 00:02:27;;;;;;;563.20;195.90;;;;;;;-1.25;67.06;99274.27;108620;1271;22530;-79
2022/03/06 00:04:54;;;;;;;491.00;169.50;;;;;;;-1.25;66.67;99272.55;108634;1271;22532;-77
2022/03/06 00:07:21;;;;;;;286.60;92.40;;;;;;;-1.26;66.59;99272.56;108619;1271;22524;-77
2022/03/06 00:09:48;;;;;;;237.00;79.70;;;;;;;-1.26;66.52;99271.55;108595;1271;24270;-77
2022/03/06 00:12:15;;;;;;;150.00;53.20;;;;;;;-1.27;66.42;99271.38;108612;1271;22681;-77
2022/03/06 00:14:42;;;;;;;142.60;54.40;;;;;;;-1.28;66.25;99272.92;108578;1271;22541;-74
2022/03/06 00:17:09;;;;;;;117.40;48.00;;;;;;;-1.31;66.37;99268.48;108653;1271;22550;-75
2022/03/06 00:19:36;;;;;;;97.50;42.60;;;;;;;-1.32;66.58;99269.18;108623;1271;22547;-78
2022/03/06 00:22:04;;;;;;;90.90;39.00;;;;;;;-1.33;66.61;99264.73;108691;1271;25911;-75
2022/03/06 00:24:31;;;;;;;91.20;40.80;;;;;;;-1.34;66.50;99261.85;108641;1271;22549;-74
2022/03/06 00:26:58;;;;;;;104.70;46.60;;;;;;;-1.35;66.16;99256.75;108659;1271;22531;-76
2022/03/06 00:29:25;;;;;;;106.10;43.50;;;;;;;-1.36;66.36;99260.52;108669;1271;24216;-75
2022/03/06 00:32:09;;;;;;;90.40;40.40;;;;;;;-1.36;66.99;99262.22;108639;1271;22686;-78
2022/03/06 00:34:36;;;;;;;79.50;35.50;;;;;;;-1.32;66.70;99261.83;108582;1271;22520;-80
2022/03/06 00:37:05;;;;;;;67.70;31.00;;;;;;;-1.27;66.96;99258.91;108580;1271;22556;-78
2022/03/06 00:39:33;;;;;;;83.50;33.50;;;;;;;-1.23;67.43;99258.52;108552;1271;22691;-78
2022/03/06 00:42:00;;;;;;;87.60;36.50;;;;;;;-1.24;67.80;99265.18;108561;1271;22539;-79
2022/03/06 00:44:27;;;;;;;98.40;40.90;;;;;;;-1.24;67.61;99259.04;108640;1271;25265;-78
2022/03/06 00:46:54;;;;;;;98.90;43.50;;;;;;;-1.23;67.37;99257.15;108663;1271;23044;-77
2022/03/06 00:49:21;;;;;;;112.20;47.30;;;;;;;-1.25;67.14;99252.88;108667;1271;22541;-77
2022/03/06 00:51:48;;;;;;;123.10;50.10;;;;;;;-1.25;67.48;99254.77;108651;1271;22528;-81
2022/03/06 00:54:15;;;;;;;147.20;56.30;;;;;;;-1.26;67.48;99257.02;108612;1271;22546;-77
2022/03/06 00:57:00;;;;;;;124.40;47.70;;;;;;;-1.26;67.15;99255.64;108570;1271;22550;-79
2022/03/06 00:59:33;;;;;;;124.10;48.50;;;;;;;-1.28;67.62;99250.52;108571;1271;24293;-78
2022/03/06 01:02:01;;;;;;;110.60;45.90;;;;;;;-1.28;67.55;99247.12;108581;1271;22524;-82
2022/03/06 01:04:28;;;;;;;117.40;45.30;;;;;;;-1.28;67.40;99249.34;108608;1271;22543;-81
2022/03/06 01:06:55;;;;;;;113.40;46.60;;;;;;;-1.29;67.18;99246.61;108555;1271;22654;-79
2022/03/06 01:09:22;;;;;;;99.40;43.50;;;;;;;-1.31;67.08;99249.17;108567;1271;22607;-78
2022/03/06 01:11:50;;;;;;;91.20;40.00;;;;;;;-1.28;67.30;99247.63;108548;1271;22540;-76
2022/03/06 01:14:17;;;;;;;77.80;36.40;;;;;;;-1.25;67.60;99246.22;108575;1271;22547;-75
2022/03/06 01:16:44;;;;;;;101.00;43.30;;;;;;;-1.23;68.22;99246.04;108558;1271;22537;-75
2022/03/06 01:19:28;;;;;;;115.70;50.50;;;;;;;-1.24;68.50;99242.98;108566;1271;22892;-76
2022/03/06 01:21:55;;;;;;;117.50;51.20;;;;;;;-1.26;68.46;99244.88;108552;1271;22531;-75
2022/03/06 01:24:22;;;;;;;101.00;45.40;;;;;;;-1.26;68.32;99244.20;108558;1271;22519;-75
2022/03/06 01:26:49;;;;;;;107.00;47.90;;;;;;;-1.26;68.05;99245.23;108558;1271;24245;-76
2022/03/06 01:29:18;;;;;;;106.20;48.20;;;;;;;-1.26;67.93;99244.54;108545;1274;22519;-76
2022/03/06 01:31:45;;;;;;;107.50;51.40;;;;;;;-1.26;67.88;99247.11;108575;1271;24218;-76
2022/03/06 01:34:12;;;;;;;86.00;39.80;;;;;;;-1.26;67.66;99243.86;108545;1271;22688;-77
2022/03/06 01:36:40;;;;;;;105.40;45.00;;;;;;;-1.28;67.73;99248.15;108571;1271;22608;-76
2022/03/06 01:39:07;;;;;;;84.00;37.00;;;;;;;-1.29;67.62;99242.34;108549;1271;22522;-75
2022/03/06 01:41:35;;;;;;;100.20;41.10;;;;;;;-1.31;67.66;99239.44;108557;1271;22532;-76
2022/03/06 01:44:04;;;;;;;104.20;42.40;;;;;;;-1.30;67.91;99236.70;108338;1271;306305;-75
2022/03/06 01:46:31;;;;;;;100.20;42.90;;;;;;;-1.28;68.49;99232.94;108575;1271;22596;-76
2022/03/06 01:48:58;;;;;;;87.40;37.80;;;;;;;-1.26;69.02;99232.41;108570;1271;24217;-76
2022/03/06 01:51:25;;;;;;;95.10;40.10;;;;;;;-1.25;69.25;99234.44;108561;1271;23081;-76
2022/03/06 01:53:53;;;;;;;108.20;45.40;;;;;;;-1.25;69.14;99231.86;108563;1271;22541;-76
2022/03/06 01:56:20;;;;;;;83.10;38.50;;;;;;;-1.25;69.07;99236.15;108534;1271;22609;-77
2022/03/06 01:58:48;;;;;;;86.20;42.90;;;;;;;-1.25;69.14;99236.14;108551;1271;26511;-77
2022/03/06 02:01:15;;;;;;;63.70;31.60;;;;;;;-1.26;68.81;99239.94;108594;1271;24065;-75
2022/03/06 02:03:42;;;;;;;74.30;36.50;;;;;;;-1.29;68.75;99240.11;108581;1271;22568;-79
2022/03/06 02:06:09;;;;;;;66.90;30.80;;;;;;;-1.33;68.87;99241.84;108561;1271;22551;-76
2022/03/06 02:08:36;;;;;;;70.60;31.50;;;;;;;-1.33;68.57;99239.63;108577;1271;22534;-76
2022/03/06 02:11:05;;;;;;;65.30;30.80;;;;;;;-1.35;68.74;99240.17;108561;1271;22509;-77
2022/03/06 02:13:32;;;;;;;70.40;33.70;;;;;;;-1.33;68.85;99242.02;108583;1271;22525;-78
2022/03/06 02:16:00;;;;;;;67.20;32.60;;;;;;;-1.28;69.00;99239.26;108560;1271;22537;-76
2022/03/06 02:18:27;;;;;;;62.90;32.60;;;;;;;-1.24;69.35;99238.86;108559;1271;22620;-76
2022/03/06 02:20:54;;;;;;;62.40;30.00;;;;;;;-1.20;70.00;99237.99;108581;1271;22525;-76
2022/03/06 02:23:21;;;;;;;69.50;32.70;;;;;;;-1.20;70.13;99239.02;108560;1271;22554;-82
2022/03/06 02:28:35;;;;;;;70.90;34.30;;;;;;;-1.17;69.59;99231.66;99219;1271;938641;-77
2022/03/06 02:31:03;;;;;;;67.90;32.30;;;;;;;-1.17;69.64;99234.71;108016;1282;22538;-81
2022/03/06 02:33:31;;;;;;;72.10;31.70;;;;;;;-1.18;69.93;99231.14;108024;1282;22626;-76
2022/03/06 02:35:58;;;;;;;90.00;34.30;;;;;;;-1.17;69.57;99227.55;107947;1282;22561;-77
2022/03/06 02:38:25;;;;;;;74.80;31.50;;;;;;;-1.19;69.24;99229.44;108184;1282;22575;-78
2022/03/06 02:40:53;;;;;;;75.30;31.20;;;;;;;-1.22;69.20;99227.58;108220;1282;22628;-77
2022/03/06 02:43:20;;;;;;;77.10;32.80;;;;;;;-1.24;69.28;99228.27;108133;1282;22531;-78
2022/03/06 02:45:47;;;;;;;78.00;32.70;;;;;;;-1.25;69.44;99227.60;108049;1282;22582;-77
2022/03/06 02:48:14;;;;;;;67.80;30.00;;;;;;;-1.26;69.16;99224.38;107934;1282;22557;-76
2022/03/06 02:50:41;;;;;;;60.30;30.00;;;;;;;-1.22;69.34;99225.52;107949;1282;22668;-77
2022/03/06 02:53:09;;;;;;;61.10;28.80;;;;;;;-1.19;69.59;99229.79;107967;1282;22627;-79
2022/03/06 02:55:37;;;;;;;55.60;26.80;;;;;;;-1.17;70.29;99228.05;107978;1282;22534;-75
2022/03/06 02:58:05;;;;;;;63.40;28.60;;;;;;;-1.18;70.33;99228.23;107910;1282;22556;-76
2022/03/06 03:00:32;;;;;;;65.80;28.40;;;;;;;-1.18;70.13;99227.04;107932;1282;22677;-77
2022/03/06 03:02:59;;;;;;;78.30;30.20;;;;;;;-1.17;69.85;99225.49;108068;1282;22562;-79
2022/03/06 03:05:26;;;;;;;57.60;27.50;;;;;;;-1.17;69.62;99226.87;108135;1282;24941;-76
2022/03/06 03:07:54;;;;;;;53.80;26.20;;;;;;;-1.19;69.55;99228.77;108128;1282;22559;-78
2022/03/06 03:10:22;;;;;;;47.00;23.70;;;;;;;-1.19;69.39;99231.84;108124;1282;22620;-77
2022/03/06 03:12:50;;;;;;;40.10;19.70;;;;;;;-1.20;69.11;99231.16;108142;1282;22537;-76
2022/03/06 03:15:18;;;;;;;41.10;20.30;;;;;;;-1.23;68.90;99226.56;108147;1282;22872;-79
2022/03/06 03:17:45;;;;;;;34.30;16.60;;;;;;;-1.25;68.81;99227.43;108124;1282;22588;-78
2022/03/06 03:20:14;;;;;;;28.90;15.70;;;;;;;-1.28;68.63;99224.56;108151;1282;22547;-78
2022/03/06 03:22:42;;;;;;;27.70;13.00;;;;;;;-1.31;68.49;99225.42;108141;1282;22714;-78
2022/03/06 03:25:10;;;;;;;29.60;13.50;;;;;;;-1.32;68.29;99224.92;108133;1282;22564;-80
2022/03/06 03:27:38;;;;;;;27.90;14.20;;;;;;;-1.33;68.29;99229.20;108141;1282;22613;-78
2022/03/06 03:30:07;;;;;;;26.50;13.90;;;;;;;-1.33;68.27;99230.91;108040;1282;22525;-82
2022/03/06 03:32:35;;;;;;;29.40;14.20;;;;;;;-1.34;68.15;99228.36;107956;1282;25302;-78
2022/03/06 03:35:03;;;;;;;33.30;15.40;;;;;;;-1.34;68.18;99229.22;107968;1282;22552;-78
2022/03/06 03:37:30;;;;;;;36.40;18.20;;;;;;;-1.34;68.16;99229.73;107936;1282;22771;-78
2022/03/06 03:39:57;;;;;;;36.10;18.80;;;;;;;-1.33;67.98;99228.36;107936;1282;22624;-79
2022/03/06 03:42:24;;;;;;;41.40;20.30;;;;;;;-1.28;68.09;99227.30;107942;1282;22709;-77
2022/03/06 03:44:51;;;;;;;42.80;20.90;;;;;;;-1.24;68.57;99227.93;107973;1282;22543;-77
2022/03/06 03:47:18;;;;;;;42.30;18.80;;;;;;;-1.21;69.13;99230.30;107931;1282;22714;-78
2022/03/06 03:49:45;;;;;;;34.80;17.30;;;;;;;-1.22;69.20;99231.16;107950;1282;24273;-81
2022/03/06 03:52:12;;;;;;;34.80;16.90;;;;;;;-1.23;68.98;99229.98;108138;1280;23259;-79
2022/03/06 03:54:39;;;;;;;32.00;15.90;;;;;;;-1.23;68.66;99228.95;107971;1282;22562;-78
2022/03/06 03:57:06;;;;;;;32.90;15.80;;;;;;;-1.24;68.42;99231.34;107940;1282;22701;-78
2022/03/06 03:59:33;;;;;;;32.50;15.50;;;;;;;-1.25;68.22;99229.81;107920;1282;22614;-80
2022/03/06 04:02:00;;;;;;;32.90;16.20;;;;;;;-1.25;67.95;99228.96;107703;1282;22629;-79
2022/03/06 04:04:27;;;;;;;29.50;16.20;;;;;;;-1.27;67.87;99228.48;107763;1282;22621;-77
2022/03/06 04:06:54;;;;;;;31.00;16.00;;;;;;;-1.28;67.80;99227.98;107862;1282;22690;-77
2022/03/06 04:09:21;;;;;;;35.40;16.90;;;;;;;-1.28;67.79;99231.39;107824;1282;22612;-77
2022/03/06 04:11:48;;;;;;;35.10;17.10;;;;;;;-1.29;67.70;99234.65;107812;1281;22543;-77
2022/03/06 04:14:15;;;;;;;39.90;19.10;;;;;;;-1.29;67.61;99237.55;107781;1282;22535;-77
2022/03/06 04:16:42;;;;;;;52.00;24.30;;;;;;;-1.31;67.64;99237.91;107823;1282;22616;-78
2022/03/06 04:19:10;;;;;;;53.90;26.60;;;;;;;-1.31;67.71;99239.79;107805;1282;24480;-75
2022/03/06 04:21:37;;;;;;;65.60;32.80;;;;;;;-1.32;67.69;99239.95;108166;1281;22738;-75
2022/03/06 04:24:05;;;;;;;73.30;37.00;;;;;;;-1.32;67.71;99236.54;107885;1282;22616;-74
2022/03/06 04:26:33;;;;;;;62.70;33.00;;;;;;;-1.32;67.72;99238.77;107908;1282;22544;-74
2022/03/06 04:29:00;;;;;;;40.00;20.90;;;;;;;-1.32;67.58;99242.35;107917;1282;22538;-75
2022/03/06 04:31:28;;;;;;;31.70;16.30;;;;;;;-1.32;67.45;99246.45;107804;1282;22629;-77
2022/03/06 04:33:55;;;;;;;36.80;21.20;;;;;;;-1.33;67.22;99241.51;107733;1282;23254;-79
2022/03/06 04:36:22;;;;;;;32.80;18.50;;;;;;;-1.33;67.05;99245.61;107669;1282;22543;-79
2022/03/06 04:38:49;;;;;;;34.20;18.00;;;;;;;-1.33;66.96;99243.04;107639;1282;23456;-76
2022/03/06 04:41:16;;;;;;;30.90;14.60;;;;;;;-1.34;66.56;99246.30;107708;1282;22541;-76
2022/03/06 04:43:43;;;;;;;31.50;16.30;;;;;;;-1.34;66.71;99252.29;107688;1282;22710;-78
2022/03/06 04:46:11;;;;;;;37.70;18.10;;;;;;;-1.34;66.87;99251.77;107705;1282;22569;-75
2022/03/06 04:48:38;;;;;;;47.70;22.10;;;;;;;-1.33;66.98;99255.34;107663;1282;25372;-77
2022/03/06 04:51:05;;;;;;;44.70;23.60;;;;;;;-1.27;67.18;99255.82;107644;1282;22660;-75
2022/03/06 04:53:32;;;;;;;54.40;25.00;;;;;;;-1.22;67.88;99250.64;107613;1282;22660;-79
2022/03/06 04:55:59;;;;;;;80.10;33.40;;;;;;;-1.19;68.49;99248.92;107665;1282;22591;-77
2022/03/06 04:58:26;;;;;;;76.50;32.40;;;;;;;-1.19;68.76;99251.66;107687;1282;22555;-77
2022/03/06 05:00:53;;;;;;;95.30;38.30;;;;;;;-1.20;68.80;99249.45;107685;1282;22717;-74
2022/03/06 05:03:21;;;;;;;85.00;34.20;;;;;;;-1.22;68.83;99252.02;107673;1282;22551;-78
2022/03/06 05:05:49;;;;;;;92.90;36.50;;;;;;;-1.22;68.81;99250.83;107677;1282;22555;-79
2022/03/06 05:08:16;;;;;;;69.10;33.20;;;;;;;-1.22;68.76;99249.45;107767;1282;22581;-79
2022/03/06 05:10:43;;;;;;;64.90;31.10;;;;;;;-1.21;68.57;99248.77;107683;1282;22656;-78
2022/03/06 05:13:10;;;;;;;77.60;33.40;;;;;;;-1.23;68.33;99250.83;107633;1282;22582;-80
2022/03/06 05:15:37;;;;;;;77.30;33.70;;;;;;;-1.25;68.47;99249.30;107675;1282;22593;-80
2022/03/06 05:18:04;;;;;;;67.70;32.30;;;;;;;-1.25;68.82;99249.48;107684;1282;22562;-77
2022/03/06 05:20:31;;;;;;;85.60;37.50;;;;;;;-1.22;68.80;99249.45;107690;1282;25374;-77
2022/03/06 05:22:58;;;;;;;106.00;43.90;;;;;;;-1.17;69.11;99251.30;107685;1282;22547;-79
2022/03/06 05:25:25;;;;;;;98.00;40.10;;;;;;;-1.14;69.72;99251.09;107652;1282;22547;-76
2022/03/06 05:27:52;;;;;;;101.00;41.70;;;;;;;-1.16;69.99;99254.18;107677;1282;22670;-80
2022/03/06 05:30:19;;;;;;;98.10;41.60;;;;;;;-1.17;69.88;99257.11;107631;1282;24274;-79
2022/03/06 05:32:46;;;;;;;94.80;43.40;;;;;;;-1.18;69.80;99255.08;107686;1282;22554;-78
2022/03/06 05:35:14;;;;;;;78.30;36.50;;;;;;;-1.18;69.52;99253.70;107713;1282;22613;-77
2022/03/06 05:37:42;;;;;;;79.20;32.50;;;;;;;-1.18;69.77;99254.39;107674;1282;22715;-77
2022/03/06 05:40:09;;;;;;;68.30;31.10;;;;;;;-1.17;69.51;99252.67;107671;1281;22556;-77
2022/03/06 05:42:36;;;;;;;73.40;33.50;;;;;;;-1.17;69.33;99255.58;107667;1282;24242;-77
2022/03/06 05:45:04;;;;;;;72.40;32.10;;;;;;;-1.18;69.60;99247.73;107647;1282;23562;-81
2022/03/06 05:47:31;;;;;;;65.90;30.00;;;;;;;-1.18;69.58;99244.48;107672;1282;22562;-78
2022/03/06 05:49:58;;;;;;;58.50;27.70;;;;;;;-1.17;69.77;99245.33;107663;1282;23450;-77
2022/03/06 05:52:25;;;;;;;63.30;29.10;;;;;;;-1.16;69.50;99248.05;107686;1282;24237;-79
2022/03/06 05:54:52;;;;;;;59.50;29.90;;;;;;;-1.10;69.26;99251.92;107663;1282;22645;-78
2022/03/06 05:57:19;;;;;;;61.00;28.90;;;;;;;-1.05;69.52;99248.80;107675;1282;22590;-75
2022/03/06 05:59:46;;;;;;;63.90;29.00;;;;;;;-1.00;70.07;99250.48;107654;1282;22555;-75
2022/03/06 06:02:13;;;;;;;70.90;33.60;;;;;;;-0.97;70.36;99250.09;107681;1282;22587;-77
2022/03/06 06:04:41;;;;;;;82.60;39.10;;;;;;;-0.97;70.21;99250.60;107526;1282;22610;-78
2022/03/06 06:07:09;;;;;;;138.60;53.30;;;;;;;-0.97;70.14;99247.19;107648;1282;22605;-77
2022/03/06 06:09:36;;;;;;;85.10;34.20;;;;;;;-0.95;70.23;99252.47;107665;1282;22558;-76
2022/03/06 06:12:04;;;;;;;65.90;30.80;;;;;;;-0.94;69.69;99253.48;107693;1282;22554;-76
2022/03/06 06:14:31;;;;;;;99.60;38.50;;;;;;;-0.96;69.52;99254.87;107719;1281;22709;-74
2022/03/06 06:16:58;;;;;;;99.60;41.00;;;;;;;-0.98;69.59;99251.30;107686;1282;22824;-85
2022/03/06 06:19:25;;;;;;;111.70;46.00;;;;;;;-1.00;69.48;99252.19;107654;1282;22595;-77
2022/03/06 06:21:52;;;;;;;77.30;32.40;;;;;;;-1.03;69.43;99247.41;107684;1282;22670;-76
2022/03/06 06:24:19;;;;;;;81.30;34.60;;;;;;;-1.04;69.49;99251.19;107694;1282;22550;-80
2022/03/06 06:26:47;;;;;;;125.40;53.20;;;;;;;-1.01;69.79;99255.27;107728;1282;22584;-73
2022/03/06 06:29:15;;;;;;;113.60;51.10;;;;;;;-0.99;70.22;99251.32;107701;1282;22561;-76
2022/03/06 06:31:43;;;;;;;97.70;41.70;;;;;;;-0.95;70.99;99254.00;107734;1282;23116;-78
2022/03/06 06:34:10;;;;;;;80.90;36.20;;;;;;;-0.94;71.07;99252.46;107717;1282;23599;-76
2022/03/06 06:36:37;;;;;;;71.90;32.00;;;;;;;-0.93;70.85;99258.78;107645;1282;22565;-74
2022/03/06 06:39:05;;;;;;;82.00;39.40;;;;;;;-0.94;70.58;99258.10;107706;1282;22625;-74
2022/03/06 06:41:32;;;;;;;63.30;32.90;;;;;;;-0.95;70.24;99260.34;107734;1282;22571;-75
2022/03/06 06:43:59;;;;;;;70.30;34.60;;;;;;;-0.95;70.12;99260.85;107716;1282;22660;-74
2022/03/06 06:46:26;;;;;;;60.40;30.00;;;;;;;-0.95;69.91;99261.88;107714;1282;23602;-74
2022/03/06 06:48:53;;;;;;;50.50;25.50;;;;;;;-0.95;69.73;99263.58;107707;1282;24455;-73
2022/03/06 06:51:20;;;;;;;53.40;25.30;;;;;;;-0.94;69.41;99262.72;107703;1282;22784;-75
2022/03/06 06:53:47;;;;;;;56.20;27.80;;;;;;;-0.95;69.37;99266.66;107750;1282;24544;-74
2022/03/06 06:56:14;;;;;;;51.80;26.90;;;;;;;-0.92;69.16;99269.55;107688;1282;23375;-74
2022/03/06 06:58:41;;;;;;;51.30;24.90;;;;;;;-0.91;69.04;99269.20;107701;1281;22568;-73
2022/03/06 07:01:08;;;;;;;44.50;20.90;;;;;;;-0.91;68.63;99267.16;107664;1282;22701;-75
2022/03/06 07:03:35;;;;;;;35.10;17.70;;;;;;;-0.93;68.15;99265.96;107700;1282;22737;-75
2022/03/06 07:06:02;;;;;;;30.00;15.60;;;;;;;-0.94;68.03;99268.71;107691;1282;22550;-78
2022/03/06 07:08:29;;;;;;;28.50;15.40;;;;;;;-0.91;67.94;99268.86;107695;1282;22597;-73
2022/03/06 07:10:56;;;;;;;34.50;17.70;;;;;;;-0.87;67.68;99268.64;107673;1282;22680;-74
2022/03/06 07:13:23;;;;;;;74.90;36.80;;;;;;;-0.82;67.54;99269.63;107681;1282;23001;-76
2022/03/06 07:15:50;;;;;;;153.10;74.40;;;;;;;-0.75;66.89;99270.25;107705;1282;22646;-75
2022/03/06 07:18:17;;;;;;;49.40;24.70;;;;;;;-0.67;67.25;99272.38;107718;1282;24446;-76
2022/03/06 07:20:45;;;;;;;24.60;13.40;;;;;;;-0.53;67.75;99273.27;107707;1282;22563;-75
2022/03/06 07:23:12;;;;;;;40.00;19.50;;;;;;;-0.46;67.74;99277.97;107689;1282;23122;-76
2022/03/06 07:25:39;;;;;;;45.10;21.50;;;;;;;-0.41;67.84;99280.50;107675;1282;23284;-76
2022/03/06 07:28:07;;;;;;;27.10;13.30;;;;;;;-0.37;67.65;99276.69;107702;1282;26520;-75
2022/03/06 07:30:34;;;;;;;29.10;14.20;;;;;;;-0.30;67.06;99274.73;107700;1282;22553;-74
2022/03/06 07:33:01;;;;;;;48.90;26.40;;;;;;;-0.31;66.50;99280.05;107698;1282;22791;-76
2022/03/06 07:35:29;;;;;;;59.30;19.80;;;;;;;-0.32;66.03;99279.03;107698;1282;22574;-75
2022/03/06 07:37:56;;;;;;;51.40;19.10;;;;;;;-0.38;66.01;99277.40;107729;1282;22599;-78
2022/03/06 07:40:23;;;;;;;46.30;18.70;;;;;;;-0.44;65.90;99273.51;107705;1282;22528;-76
2022/03/06 07:42:51;;;;;;;38.00;18.30;;;;;;;-0.50;66.19;99272.73;107707;1282;23205;-75
2022/03/06 07:45:18;;;;;;;47.50;21.70;;;;;;;-0.51;66.52;99274.95;107728;1282;22632;-76
2022/03/06 07:47:45;;;;;;;40.50;18.90;;;;;;;-0.48;66.59;99275.61;107684;1282;22632;-75
2022/03/06 07:50:14;;;;;;;30.70;18.20;;;;;;;-0.47;66.66;99270.13;107683;1282;22729;-75
2022/03/06 07:52:42;;;;;;;37.60;20.70;;;;;;;-0.45;66.58;99271.47;107693;1282;25474;-76
2022/03/06 07:55:10;;;;;;;36.10;19.30;;;;;;;-0.44;66.69;99275.03;107740;1282;25393;-79
2022/03/06 07:57:38;;;;;;;44.80;22.10;;;;;;;-0.40;66.83;99272.09;107690;1282;22687;-75
2022/03/06 08:00:10;;;;;;;77.90;35.40;;;;;;;-0.32;66.82;99269.45;107787;1281;22531;-75
2022/03/06 08:02:38;;;;;;;29.10;16.70;;;;;;;-0.27;66.92;99268.70;107702;1282;22537;-74
2022/03/06 08:05:06;;;;;;;55.90;26.80;;;;;;;-0.20;67.35;99271.89;107816;1282;22619;-75
2022/03/06 08:07:33;;;;;;;44.20;22.50;;;;;;;-0.21;68.13;99268.98;107503;1282;22580;-75
2022/03/06 08:10:01;;;;;;;54.80;26.60;;;;;;;-0.17;68.91;99270.64;107683;1282;25256;-75
2022/03/06 08:12:28;;;;;;;52.80;24.30;;;;;;;-0.17;68.83;99270.98;107699;1282;22545;-75
2022/03/06 08:14:55;;;;;;;44.30;21.40;;;;;;;-0.17;68.55;99272.35;107678;1282;22636;-76
2022/03/06 08:17:22;;;;;;;70.80;33.90;;;;;;;-0.12;68.18;99268.70;107705;1282;22553;-77
2022/03/06 08:19:49;;;;;;;39.10;20.70;;;;;;;-0.10;68.05;99266.11;107725;1282;22628;-76
2022/03/06 08:22:16;;;;;;;70.70;35.40;;;;;;;-0.12;67.98;99262.70;107731;1282;23656;-75
2022/03/06 08:24:43;;;;;;;45.40;22.60;;;;;;;-0.08;68.08;99263.84;107710;1282;22568;-74
2022/03/06 08:27:10;;;;;;;48.30;25.40;;;;;;;-0.02;67.93;99259.66;107712;1282;22554;-75
2022/03/06 08:29:37;;;;;;;41.60;20.00;;;;;;;-0.09;68.11;99262.30;107721;1282;22627;-80
2022/03/06 08:32:05;;;;;;;53.80;26.40;;;;;;;-0.11;68.13;99267.32;107706;1282;22710;-76
2022/03/06 08:34:32;;;;;;;54.90;25.30;;;;;;;-0.07;68.41;99261.10;107718;1282;23114;-75
2022/03/06 08:36:59;;;;;;;36.90;19.60;;;;;;;-0.06;68.85;99262.11;107667;1282;22602;-76
2022/03/06 08:39:26;;;;;;;88.90;42.30;;;;;;;-0.07;69.14;99262.64;107674;1282;22569;-75
2022/03/06 08:41:54;;;;;;;49.60;26.90;;;;;;;-0.09;68.89;99259.27;107734;1282;22579;-75
2022/03/06 08:44:21;;;;;;;29.80;16.00;;;;;;;-0.05;68.50;99255.42;107721;1282;23281;-75
2022/03/06 08:46:48;;;;;;;40.50;20.80;;;;;;;-0.08;68.31;99256.65;107728;1282;22604;-74
2022/03/06 08:49:16;;;;;;;41.30;21.20;;;;;;;-0.05;68.28;99256.45;107696;1282;22590;-76
2022/03/06 08:51:43;;;;;;;46.30;24.60;;;;;;;0.03;68.00;99253.77;107701;1282;25322;-75
2022/03/06 08:54:10;;;;;;;37.90;19.60;;;;;;;0.05;67.82;99252.21;107722;1282;22698;-74
2022/03/06 08:56:37;;;;;;;41.10;20.40;;;;;;;0.02;67.91;99250.54;107713;1281;22594;-80
2022/03/06 08:59:04;;;;;;;39.20;20.70;;;;;;;-0.01;67.97;99249.57;107736;1282;22579;-76
2022/03/06 09:01:31;;;;;;;44.40;23.70;;;;;;;0.04;67.90;99246.22;107707;1282;22667;-76
2022/03/06 09:03:58;;;;;;;52.40;25.90;;;;;;;0.08;67.86;99248.23;107675;1282;22570;-75
2022/03/06 09:06:25;;;;;;;52.30;26.10;;;;;;;0.11;67.75;99249.05;107642;1282;22585;-77
2022/03/06 09:08:52;;;;;;;40.20;21.50;;;;;;;0.10;67.73;99247.70;107742;1282;22572;-75
2022/03/06 09:11:19;;;;;;;54.30;31.40;;;;;;;0.09;67.15;99251.30;107742;1282;22627;-76
2022/03/06 09:13:46;;;;;;;40.80;21.50;;;;;;;0.01;66.70;99246.45;107670;1282;22566;-75
2022/03/06 09:16:13;;;;;;;49.90;26.80;;;;;;;-0.06;66.88;99248.23;107675;1282;22577;-75
2022/03/06 09:18:40;;;;;;;74.00;37.70;;;;;;;-0.06;66.67;99249.44;107678;1282;24487;-75
2022/03/06 09:21:07;;;;;;;52.70;27.40;;;;;;;-0.08;66.29;99249.30;107685;1282;23147;-77
2022/03/06 09:23:34;;;;;;;96.80;48.70;;;;;;;-0.18;66.29;99252.00;107677;1282;22575;-74
2022/03/06 09:26:01;;;;;;;56.00;25.00;;;;;;;-0.21;66.39;99247.92;107666;1282;22784;-76
2022/03/06 09:28:28;;;;;;;43.80;20.70;;;;;;;-0.22;66.21;99249.82;107662;1282;22566;-74
2022/03/06 09:30:55;;;;;;;45.40;22.80;;;;;;;-0.26;66.04;99251.75;107657;1282;22541;-74
2022/03/06 09:33:22;;;;;;;36.30;18.60;;;;;;;-0.31;65.95;99251.45;107714;1282;22556;-75
2022/03/06 09:35:49;;;;;;;35.00;16.10;;;;;;;-0.33;65.59;99248.74;107713;1282;26327;-74
2022/03/06 09:38:16;;;;;;;31.50;12.40;;;;;;;-0.35;65.58;99248.43;107746;1282;22564;-75
2022/03/06 09:40:44;;;;;;;62.90;21.00;;;;;;;-0.35;64.99;99251.85;107723;1282;23436;-79
2022/03/06 09:43:17;;;;;;;96.20;33.20;;;;;;;-0.34;65.19;99248.23;107722;1282;22582;-76
2022/03/06 09:45:45;;;;;;;33.80;15.20;;;;;;;-0.36;64.66;99252.20;107729;1282;24314;-75
2022/03/06 09:48:15;;;;;;;26.80;12.60;;;;;;;-0.37;64.09;99249.15;107974;1282;22816;-76
2022/03/06 09:50:43;;;;;;;21.70;10.30;;;;;;;-0.37;64.16;99249.83;107707;1282;22716;-80
2022/03/06 09:53:10;;;;;;;38.50;17.10;;;;;;;-0.40;63.62;99253.27;107779;1282;22616;-75
2022/03/06 09:55:37;;;;;;;28.40;14.60;;;;;;;-0.37;63.76;99249.31;107716;1282;22544;-75
2022/03/06 09:58:04;;;;;;;39.20;20.00;;;;;;;-0.35;63.87;99249.63;107693;1282;22620;-76
2022/03/06 10:00:32;;;;;;;92.50;39.10;;;;;;;-0.30;63.64;99244.42;107704;1282;23929;-74
2022/03/06 10:03:01;;;;;;;95.30;56.80;;;;;;;-0.23;63.16;99245.71;107653;1282;22543;-75
2022/03/06 10:05:32;;;;;;;48.40;32.00;;;;;;;-0.14;62.56;99248.00;107860;1282;22644;-79
2022/03/06 10:08:17;;;;;;;53.10;32.80;;;;;;;-0.08;62.28;99248.42;107710;1282;22563;-79
2022/03/06 10:10:45;;;;;;;62.60;33.40;;;;;;;0.05;62.29;99243.48;107730;1282;23254;-74
2022/03/06 10:13:21;;;;;;;64.00;35.70;;;;;;;0.18;62.01;99243.82;107647;1282;22563;-81
2022/03/06 10:15:58;;;;;;;75.80;42.50;;;;;;;0.34;61.45;99241.19;107645;1282;22550;-75
2022/03/06 10:18:25;;;;;;;22.40;13.60;;;;;;;0.49;61.01;99245.95;107692;1282;22543;-76
2022/03/06 10:20:52;;;;;;;20.70;11.00;;;;;;;0.57;60.65;99243.77;107706;1282;22563;-78
2022/03/06 10:23:27;;;;;;;22.70;12.80;;;;;;;0.66;60.68;99247.73;107733;1282;22632;-76
2022/03/06 10:26:05;;;;;;;31.30;16.00;;;;;;;0.81;60.61;99241.48;107696;1282;22540;-75
2022/03/06 10:28:45;;;;;;;26.10;14.80;;;;;;;0.96;60.82;99236.79;107767;1282;25346;-78
2022/03/06 10:31:14;;;;;;;18.20;10.50;;;;;;;1.13;59.00;99237.02;107782;1282;22577;-76
2022/03/06 10:34:03;;;;;;;19.60;9.80;;;;;;;1.15;58.46;99237.14;108007;1282;22566;-77
2022/03/06 10:36:38;;;;;;;22.90;12.10;;;;;;;1.31;57.84;99235.13;108040;1282;22630;-76
2022/03/06 10:39:19;;;;;;;25.10;13.80;;;;;;;1.49;58.97;99233.60;107997;1282;22553;-81
2022/03/06 10:41:53;;;;;;;19.90;11.00;;;;;;;1.67;57.30;99228.27;108011;1282;25334;-79
2022/03/06 10:44:21;;;;;;;;;;;;;;;1.78;56.80;99228.05;108003;1282;22550;-75
2022/03/06 10:47:05;;;;;;;15.20;9.20;;;;;;;1.84;55.76;99227.23;107988;1282;22562;-76
2022/03/06 10:49:33;;;;;;;18.70;11.60;;;;;;;1.92;56.08;99223.98;107979;1282;22643;-76
2022/03/06 10:52:16;;;;;;;31.90;16.70;;;;;;;1.94;55.12;99215.70;107823;1284;22573;-77
2022/03/06 10:54:58;;;;;;;42.40;21.90;;;;;;;1.93;54.88;99214.52;107980;1282;22769;-76
2022/03/06 10:57:25;;;;;;;80.20;36.80;;;;;;;2.03;54.99;99214.80;107999;1282;24271;-77
2022/03/06 10:59:54;;;;;;;40.60;21.00;;;;;;;2.14;54.13;99209.23;108003;1282;22632;-77
2022/03/06 11:02:24;;;;;;;46.40;23.20;;;;;;;2.29;55.34;99208.41;107987;1282;23011;-77
2022/03/06 11:04:53;;;;;;;23.00;13.20;;;;;;;2.40;55.07;99204.02;107997;1282;24270;-77
2022/03/06 11:07:22;;;;;;;24.10;16.00;;;;;;;2.41;53.67;99202.45;108000;1283;22587;-77
2022/03/06 11:09:53;;;;;;;22.40;12.40;;;;;;;2.51;54.39;99199.11;107991;1283;22545;-78
2022/03/06 11:12:22;;;;;;;27.40;14.20;;;;;;;2.64;54.51;99200.16;108023;1284;22516;-77
2022/03/06 11:14:50;;;;;;;33.70;20.90;;;;;;;2.75;53.26;99197.16;108033;1283;22711;-77
2022/03/06 11:17:17;;;;;;;32.00;19.00;;;;;;;2.82;53.98;99192.16;108004;1283;22528;-77